Time;durP1;ratioP1;P1;durP2;ratioP2;P2;SDS_P1;SDS_P2;PMS_P1;PMS_P2;Temp;Humidity;BMP_temperature;BMP_pressure;BME280_temperature;BME280_humidity;BME280_pressure;Samples;Min_cycle;Max_cycle;Signal;HPM_P1;HPM_P2
2020/12/19 00:01:55;;;;;;;10.48;7.28;;;7.40;99.90;;;;;;5040033;28;20193;-88
2020/12/19 00:04:21;;;;;;;8.85;7.07;;;7.40;99.90;;;;;;5040065;28;20211;-88
2020/12/19 00:06:48;;;;;;;10.73;7.57;;;7.40;99.90;;;;;;5040177;28;20212;-88
2020/12/19 00:09:16;;;;;;;8.20;7.15;;;7.50;99.90;;;;;;5038190;28;20267;-88
2020/12/19 00:11:42;;;;;;;9.98;6.45;;;7.50;99.90;;;;;;5038657;28;20199;-88
2020/12/19 00:14:09;;;;;;;8.85;7.00;;;7.50;99.90;;;;;;5035311;28;20225;-88
2020/12/19 00:16:35;;;;;;;7.60;6.40;;;7.50;99.90;;;;;;5036369;28;20185;-87
2020/12/19 00:19:05;;;;;;;9.00;7.03;;;7.70;99.90;;;;;;5036009;28;20579;-87
2020/12/19 00:21:33;;;;;;;10.35;6.40;;;7.50;99.90;;;;;;5035731;28;20212;-89
2020/12/19 00:24:00;;;;;;;8.93;6.85;;;7.50;99.90;;;;;;5038841;28;20193;-89
2020/12/19 00:26:32;;;;;;;11.13;7.55;;;7.50;99.90;;;;;;5039078;28;20197;-89
2020/12/19 00:28:59;;;;;;;9.98;7.25;;;7.40;99.90;;;;;;5033929;28;20194;-89
2020/12/19 00:31:25;;;;;;;6.35;5.18;;;7.50;99.90;;;;;;5035591;28;20185;-88
2020/12/19 00:33:52;;;;;;;7.45;5.57;;;7.50;99.90;;;;;;5035333;28;20213;-88
2020/12/19 00:36:18;;;;;;;9.65;6.50;;;7.50;99.90;;;;;;5034722;28;20671;-89
2020/12/19 00:38:44;;;;;;;7.70;6.20;;;7.50;99.90;;;;;;5035165;28;20199;-88
2020/12/19 00:41:17;;;;;;;8.13;6.18;;;7.70;99.90;;;;;;5035401;28;20346;-87
2020/12/19 00:43:45;;;;;;;7.53;5.65;;;7.60;99.90;;;;;;5036392;28;20192;-87
2020/12/19 00:46:12;;;;;;;11.80;5.97;;;7.60;99.90;;;;;;5035465;28;20195;-88
2020/12/19 00:48:39;;;;;;;8.32;6.38;;;7.80;99.90;;;;;;5034838;28;20189;-87
2020/12/19 00:51:11;;;;;;;9.23;5.88;;;7.70;99.90;;;;;;5035756;28;20649;-88
2020/12/19 00:53:37;;;;;;;8.32;5.72;;;7.70;99.90;;;;;;5033604;28;20274;-88
2020/12/19 00:56:03;;;;;;;9.95;6.10;;;7.70;99.90;;;;;;5035230;28;20192;-89
2020/12/19 00:58:30;;;;;;;8.48;6.03;;;7.70;99.90;;;;;;5034615;28;20189;-87
2020/12/19 01:00:57;;;;;;;7.00;5.57;;;7.70;99.90;;;;;;5036090;28;20641;-88
2020/12/19 01:03:23;;;;;;;8.05;6.28;;;7.70;99.90;;;;;;5034563;28;20192;-89
2020/12/19 01:05:50;;;;;;;7.35;5.20;;;7.80;99.90;;;;;;5035916;28;20193;-87
2020/12/19 01:08:16;;;;;;;8.35;6.10;;;7.80;99.90;;;;;;5034044;28;20657;-87
2020/12/19 01:10:42;;;;;;;8.07;5.93;;;7.80;99.90;;;;;;5035705;28;20212;-88
2020/12/19 01:13:09;;;;;;;7.82;6.03;;;7.80;99.90;;;;;;5034568;28;20235;-88
2020/12/19 01:15:35;;;;;;;7.32;5.63;;;7.80;99.90;;;;;;5035507;28;20275;-88
2020/12/19 01:18:02;;;;;;;10.00;6.90;;;7.70;99.90;;;;;;5034693;28;20277;-88
2020/12/19 01:20:29;;;;;;;8.80;6.13;;;7.70;99.90;;;;;;5034324;28;20314;-87
2020/12/19 01:22:55;;;;;;;12.45;6.40;;;7.70;99.90;;;;;;5034335;28;20189;-89
2020/12/19 01:25:21;;;;;;;9.48;6.72;;;7.70;99.90;;;;;;5035604;28;20189;-89
2020/12/19 01:27:48;;;;;;;6.60;5.88;;;7.70;99.90;;;;;;5034141;28;20671;-89
2020/12/19 01:30:14;;;;;;;11.10;7.32;;;7.70;99.90;;;;;;5034713;28;20192;-89
2020/12/19 01:32:40;;;;;;;8.25;6.10;;;7.70;99.90;;;;;;5022568;28;20252;-89
2020/12/19 01:35:08;;;;;;;6.50;4.80;;;7.70;99.90;;;;;;5035440;28;20196;-88
2020/12/19 01:37:34;;;;;;;9.65;7.03;;;7.60;99.90;;;;;;5033807;28;20616;-87
2020/12/19 01:40:03;;;;;;;10.85;6.93;;;7.60;99.90;;;;;;5035972;28;20197;-88
2020/12/19 01:42:30;;;;;;;8.00;5.85;;;7.70;99.90;;;;;;5036981;28;20203;-88
2020/12/19 01:44:56;;;;;;;7.85;5.75;;;7.70;99.90;;;;;;5036183;28;20766;-88
2020/12/19 01:47:23;;;;;;;10.15;6.82;;;7.70;99.90;;;;;;5029567;28;20233;-88
2020/12/19 01:49:50;;;;;;;8.80;6.38;;;7.70;99.90;;;;;;5035176;28;20200;-87
2020/12/19 01:52:20;;;;;;;11.48;8.40;;;7.70;99.90;;;;;;5034043;28;20207;-88
2020/12/19 01:54:48;;;;;;;7.47;6.03;;;7.70;99.90;;;;;;5035186;28;20592;-88
2020/12/19 01:57:17;;;;;;;9.02;6.82;;;7.70;99.90;;;;;;5034094;28;20615;-87
2020/12/19 01:59:44;;;;;;;9.50;6.18;;;7.80;99.90;;;;;;5028394;28;20576;-87
2020/12/19 02:02:11;;;;;;;8.00;6.32;;;7.70;99.90;;;;;;5027223;28;20192;-88
2020/12/19 02:04:38;;;;;;;8.15;6.93;;;7.70;99.90;;;;;;5036194;28;20279;-88
2020/12/19 02:07:06;;;;;;;8.73;6.45;;;7.70;99.90;;;;;;5034179;28;20193;-88
2020/12/19 02:09:37;;;;;;;9.73;6.53;;;7.70;99.90;;;;;;5033898;28;20200;-86
2020/12/19 02:12:03;;;;;;;7.90;6.53;;;7.70;99.90;;;;;;5034240;28;20695;-88
2020/12/19 02:14:30;;;;;;;8.20;6.97;;;7.70;99.90;;;;;;5036243;28;20238;-87
2020/12/19 02:16:58;;;;;;;8.10;6.70;;;7.60;99.90;;;;;;5037632;28;20196;-88
2020/12/19 02:19:26;;;;;;;10.50;6.78;;;7.70;99.90;;;;;;5037855;28;20188;-88
2020/12/19 02:21:52;;;;;;;8.38;6.93;;;7.60;99.90;;;;;;5037666;28;20197;-88
2020/12/19 02:24:20;;;;;;;11.13;6.00;;;7.50;99.90;;;;;;5037830;28;20207;-87
2020/12/19 02:26:47;;;;;;;8.32;7.50;;;7.50;99.90;;;;;;5036385;28;20268;-86
2020/12/19 02:29:14;;;;;;;10.80;9.05;;;7.60;99.90;;;;;;5036851;28;20189;-87
2020/12/19 02:31:40;;;;;;;8.40;6.18;;;7.60;99.90;;;;;;5037220;28;20185;-87
2020/12/19 02:34:07;;;;;;;7.78;6.50;;;7.60;99.90;;;;;;5036696;28;20274;-86
2020/12/19 02:36:33;;;;;;;11.23;7.40;;;7.60;99.90;;;;;;5037162;28;20177;-86
2020/12/19 02:38:59;;;;;;;8.43;6.47;;;7.60;99.90;;;;;;5036517;28;20633;-87
2020/12/19 02:41:27;;;;;;;10.30;6.88;;;7.70;99.90;;;;;;5036188;28;20192;-87
2020/12/19 02:43:54;;;;;;;7.65;6.85;;;7.70;99.90;;;;;;5036629;28;20185;-88
2020/12/19 02:46:21;;;;;;;9.85;6.90;;;7.60;99.90;;;;;;5036644;28;20195;-87
2020/12/19 02:48:47;;;;;;;9.00;6.28;;;7.50;99.90;;;;;;5037015;28;20200;-87
2020/12/19 02:51:14;;;;;;;9.45;7.78;;;7.50;99.90;;;;;;5035972;28;20693;-86
2020/12/19 02:53:40;;;;;;;9.82;7.40;;;7.60;99.90;;;;;;5036637;28;20220;-87
2020/12/19 02:56:07;;;;;;;11.75;8.73;;;7.60;99.90;;;;;;5035891;28;20189;-88
2020/12/19 02:58:34;;;;;;;9.32;7.40;;;7.60;99.90;;;;;;5036779;28;20200;-87
2020/12/19 03:01:01;;;;;;;10.98;7.65;;;7.60;99.90;;;;;;5035948;28;20185;-88
2020/12/19 03:03:27;;;;;;;10.68;7.75;;;7.70;99.90;;;;;;5036752;28;20612;-87
2020/12/19 03:05:54;;;;;;;8.40;7.20;;;7.60;99.90;;;;;;5036114;28;20184;-88
2020/12/19 03:08:20;;;;;;;10.38;8.02;;;7.70;99.90;;;;;;5036471;28;20591;-89
2020/12/19 03:10:46;;;;;;;8.18;6.63;;;7.60;99.90;;;;;;5035641;28;20435;-87
2020/12/19 03:13:13;;;;;;;8.43;6.60;;;7.70;99.90;;;;;;5036090;28;20224;-88
2020/12/19 03:15:40;;;;;;;8.90;6.88;;;7.70;99.90;;;;;;5035984;28;20181;-88
2020/12/19 03:18:06;;;;;;;9.63;8.05;;;7.70;99.90;;;;;;5036356;28;20196;-88
2020/12/19 03:20:33;;;;;;;10.25;7.20;;;7.70;99.90;;;;;;5035724;28;20195;-87
2020/12/19 03:22:59;;;;;;;10.75;7.13;;;7.80;99.90;;;;;;5036249;28;20195;-87
2020/12/19 03:25:26;;;;;;;11.70;8.95;;;7.70;99.90;;;;;;5035706;28;20185;-87
2020/12/19 03:27:53;;;;;;;8.63;6.47;;;7.70;99.90;;;;;;5035773;28;20201;-87
2020/12/19 03:30:19;;;;;;;8.20;6.50;;;7.70;99.90;;;;;;5035907;28;20196;-88
2020/12/19 03:32:47;;;;;;;13.10;8.02;;;7.60;99.90;;;;;;5035775;28;20189;-88
2020/12/19 03:35:13;;;;;;;9.70;7.25;;;7.70;99.90;;;;;;5035817;28;20271;-88
2020/12/19 03:37:39;;;;;;;7.85;5.68;;;7.60;99.90;;;;;;5036051;28;20185;-88
2020/12/19 03:40:06;;;;;;;10.00;6.95;;;7.70;99.90;;;;;;5038804;28;20192;-88
2020/12/19 03:42:32;;;;;;;8.23;7.32;;;7.70;99.90;;;;;;5037699;28;20185;-88
2020/12/19 03:44:58;;;;;;;10.57;8.07;;;7.70;99.90;;;;;;5036703;28;20195;-88
2020/12/19 03:47:24;;;;;;;8.82;7.80;;;7.70;99.90;;;;;;5037439;28;20189;-87
2020/12/19 03:49:52;;;;;;;9.88;7.35;;;7.50;99.90;;;;;;5037708;28;20189;-87
2020/12/19 03:52:18;;;;;;;9.80;7.03;;;7.50;99.90;;;;;;5034929;28;20181;-88
2020/12/19 03:54:44;;;;;;;8.85;7.28;;;7.40;99.90;;;;;;5035461;28;20212;-87
2020/12/19 03:57:10;;;;;;;11.23;6.97;;;7.40;99.90;;;;;;5034928;28;20193;-87
2020/12/19 03:59:37;;;;;;;11.13;7.68;;;7.60;99.90;;;;;;5035656;28;20661;-88
2020/12/19 04:02:03;;;;;;;9.23;7.07;;;7.50;99.90;;;;;;5035286;28;20195;-87
2020/12/19 04:04:29;;;;;;;11.55;7.55;;;7.50;99.90;;;;;;5037641;28;20193;-88
2020/12/19 04:06:57;;;;;;;10.15;7.70;;;7.40;99.90;;;;;;5034997;28;20215;-88
2020/12/19 04:09:23;;;;;;;9.55;7.80;;;7.40;99.90;;;;;;5035702;28;20238;-87
2020/12/19 04:11:49;;;;;;;10.65;7.38;;;7.40;99.90;;;;;;5035216;28;20188;-88
2020/12/19 04:14:15;;;;;;;9.48;7.70;;;7.30;99.90;;;;;;5035527;28;20324;-87
2020/12/19 04:16:42;;;;;;;10.90;8.70;;;7.30;99.90;;;;;;5035278;28;20188;-88
2020/12/19 04:19:08;;;;;;;14.27;8.45;;;7.20;99.90;;;;;;5035629;28;20185;-88
2020/12/19 04:21:34;;;;;;;11.13;9.15;;;7.40;99.90;;;;;;5035392;28;20185;-88
2020/12/19 04:24:02;;;;;;;12.95;9.38;;;7.20;99.90;;;;;;5042032;28;20633;-88
2020/12/19 04:26:28;;;;;;;9.90;8.82;;;7.20;99.90;;;;;;5041912;28;20187;-88
2020/12/19 04:28:54;;;;;;;11.63;8.60;;;7.20;99.90;;;;;;5043421;28;20203;-89
2020/12/19 04:31:20;;;;;;;13.10;9.20;;;7.10;99.90;;;;;;5043229;28;20189;-89
2020/12/19 04:33:47;;;;;;;14.00;9.68;;;7.10;99.90;;;;;;5043475;28;20205;-88
2020/12/19 04:36:13;;;;;;;13.55;10.18;;;7.00;99.90;;;;;;5043734;28;20185;-87
2020/12/19 04:38:39;;;;;;;10.80;9.50;;;7.10;99.90;;;;;;5037099;28;20276;-88
2020/12/19 04:41:07;;;;;;;11.68;9.38;;;7.00;99.90;;;;;;5034221;28;20246;-87
2020/12/19 04:43:34;;;;;;;12.25;8.77;;;7.00;99.90;;;;;;5036722;28;20177;-86
2020/12/19 04:46:02;;;;;;;17.67;9.43;;;7.10;99.90;;;;;;5036479;28;20188;-88
2020/12/19 04:48:30;;;;;;;13.65;9.85;;;7.10;99.90;;;;;;5042340;28;20185;-88
2020/12/19 04:50:56;;;;;;;13.60;9.82;;;7.20;99.90;;;;;;5042636;28;20241;-89
2020/12/19 04:53:22;;;;;;;10.52;8.85;;;7.00;99.90;;;;;;5024134;28;20219;-88
2020/12/19 04:55:49;;;;;;;12.20;10.25;;;7.00;99.90;;;;;;5023826;28;20188;-87
2020/12/19 04:58:18;;;;;;;12.02;9.30;;;7.00;99.90;;;;;;5035226;28;20212;-87
2020/12/19 05:00:46;;;;;;;9.88;8.55;;;7.20;99.90;;;;;;5035620;28;20532;-88
2020/12/19 05:03:12;;;;;;;11.55;8.60;;;7.10;99.90;;;;;;5020885;28;20197;-87
2020/12/19 05:05:42;;;;;;;11.50;9.50;;;7.00;99.90;;;;;;5020538;28;20533;-87
2020/12/19 05:08:09;;;;;;;10.70;8.93;;;7.10;99.90;;;;;;5033939;28;20205;-87
2020/12/19 05:10:36;;;;;;;13.50;9.43;;;7.00;99.90;;;;;;5033893;28;20192;-88
2020/12/19 05:13:02;;;;;;;13.77;9.65;;;6.90;99.90;;;;;;5033944;28;20185;-87
2020/12/19 05:15:30;;;;;;;13.77;10.48;;;7.00;99.90;;;;;;5036447;28;20263;-88
2020/12/19 05:17:59;;;;;;;10.13;8.50;;;7.00;99.90;;;;;;5039513;28;20538;-89
2020/12/19 05:20:28;;;;;;;12.50;10.63;;;7.00;99.90;;;;;;5036853;28;20193;-88
2020/12/19 05:22:55;;;;;;;12.80;9.00;;;7.00;99.90;;;;;;5035348;28;20193;-89
2020/12/19 05:25:23;;;;;;;10.75;9.18;;;7.00;99.90;;;;;;5033874;28;20189;-89
2020/12/19 05:27:50;;;;;;;11.57;9.75;;;6.90;99.90;;;;;;5034188;28;20185;-87
2020/12/19 05:30:17;;;;;;;14.48;9.73;;;7.00;99.90;;;;;;5034047;28;20184;-87
2020/12/19 05:32:47;;;;;;;11.20;8.32;;;7.00;99.90;;;;;;5034185;28;20196;-87
2020/12/19 05:35:15;;;;;;;13.10;8.63;;;7.00;99.90;;;;;;5033335;28;20215;-87
2020/12/19 05:37:42;;;;;;;13.68;10.40;;;7.20;99.90;;;;;;5034088;28;20246;-88
2020/12/19 05:40:09;;;;;;;14.18;9.98;;;7.20;99.90;;;;;;5034016;28;20191;-88
2020/12/19 05:42:37;;;;;;;12.57;9.27;;;7.30;99.90;;;;;;5033997;28;20552;-87
2020/12/19 05:45:13;;;;;;;11.45;8.15;;;7.30;99.90;;;;;;5033687;28;20279;-87
2020/12/19 05:47:39;;;;;;;15.60;11.18;;;7.40;99.90;;;;;;5033842;28;20203;-88
2020/12/19 05:50:07;;;;;;;13.43;8.05;;;7.40;99.90;;;;;;5033557;28;20184;-88
2020/12/19 05:52:35;;;;;;;12.30;9.18;;;7.50;99.90;;;;;;5033489;28;20189;-87
2020/12/19 05:55:06;;;;;;;13.45;9.73;;;7.50;99.90;;;;;;5033807;28;20266;-88
2020/12/19 05:57:34;;;;;;;12.73;9.52;;;7.40;99.90;;;;;;5016711;28;20196;-88
2020/12/19 06:00:01;;;;;;;14.57;9.93;;;7.40;99.90;;;;;;5035606;28;20196;-90
2020/12/19 06:02:30;;;;;;;14.63;9.48;;;7.30;99.90;;;;;;5036589;28;20181;-91
2020/12/19 06:05:00;;;;;;;13.60;9.18;;;7.40;99.90;;;;;;5020317;28;20386;-91
2020/12/19 06:07:29;;;;;;;12.57;9.77;;;7.30;99.90;;;;;;5023670;28;20188;-90
2020/12/19 06:09:56;;;;;;;12.55;10.13;;;7.30;99.90;;;;;;5031955;28;20548;-91
2020/12/19 06:12:33;;;;;;;11.30;8.93;;;7.20;99.90;;;;;;5034261;28;20591;-91
2020/12/19 06:15:03;;;;;;;11.88;9.05;;;7.10;99.90;;;;;;5034952;28;20307;-91
2020/12/19 06:17:39;;;;;;;13.32;10.23;;;7.10;99.90;;;;;;5029051;28;20266;-88
2020/12/19 06:20:08;;;;;;;13.80;9.82;;;7.10;99.90;;;;;;5034936;28;20691;-94
2020/12/19 06:22:36;;;;;;;12.15;10.65;;;7.10;99.90;;;;;;5043497;28;20617;-91
2020/12/19 06:25:04;;;;;;;17.65;13.45;;;7.10;99.90;;;;;;5017526;28;20197;-90
2020/12/19 06:27:41;;;;;;;14.45;10.38;;;7.20;99.90;;;;;;5031556;28;20690;-91
2020/12/19 06:30:29;;;;;;;11.75;10.32;;;7.20;99.90;;;;;;5036516;28;20261;-88
2020/12/19 06:33:15;;;;;;;12.20;9.93;;;7.20;99.90;;;;;;5037441;28;20250;-89
2020/12/19 06:35:49;;;;;;;13.82;10.70;;;7.20;99.90;;;;;;5025707;28;20191;-89
2020/12/19 06:38:38;;;;;;;12.57;10.30;;;7.20;99.90;;;;;;5036655;28;20197;-89
2020/12/19 06:41:05;;;;;;;14.57;13.00;;;7.20;99.90;;;;;;5026646;28;20231;-90
2020/12/19 06:43:31;;;;;;;15.27;10.98;;;7.20;99.90;;;;;;5038709;28;20205;-89
2020/12/19 06:46:00;;;;;;;16.50;10.85;;;7.20;99.90;;;;;;5040286;28;20678;-90
2020/12/19 06:48:29;;;;;;;12.23;10.48;;;7.20;99.90;;;;;;5040790;28;20252;-89
2020/12/19 06:51:00;;;;;;;15.73;11.95;;;7.30;99.90;;;;;;5029234;28;20192;-89
2020/12/19 06:53:28;;;;;;;17.10;11.57;;;7.20;99.90;;;;;;5043943;28;20195;-88
2020/12/19 06:55:56;;;;;;;16.02;13.40;;;7.30;99.90;;;;;;5044981;28;20245;-91
2020/12/19 06:58:35;;;;;;;17.08;13.57;;;7.40;99.90;;;;;;5044123;28;20189;-91
2020/12/19 07:01:26;;;;;;;16.67;13.38;;;7.20;99.90;;;;;;5040332;28;20272;-91
2020/12/19 07:03:52;;;;;;;13.18;10.98;;;7.20;99.90;;;;;;5041826;28;20177;-90
2020/12/19 07:06:18;;;;;;;19.33;12.50;;;7.20;99.90;;;;;;5036295;28;20189;-89
2020/12/19 07:08:45;;;;;;;17.80;12.35;;;7.20;99.90;;;;;;5044106;28;20239;-91
2020/12/19 07:11:16;;;;;;;17.95;13.20;;;7.20;99.90;;;;;;5051878;28;20252;-91
2020/12/19 07:13:53;;;;;;;15.52;11.95;;;7.10;99.90;;;;;;5037369;28;20286;-91
2020/12/19 07:16:45;;;;;;;19.52;13.30;;;7.30;99.90;;;;;;5044567;28;20251;-89
2020/12/19 07:19:33;;;;;;;17.55;12.27;;;7.20;99.90;;;;;;5042769;28;20179;-90
2020/12/19 07:22:00;;;;;;;17.88;13.70;;;7.30;99.90;;;;;;5054277;28;20204;-90
2020/12/19 07:24:27;;;;;;;16.20;12.27;;;7.20;99.90;;;;;;5045342;28;20249;-90
2020/12/19 07:26:55;;;;;;;14.82;12.32;;;7.30;99.90;;;;;;5037531;28;20196;-91
2020/12/19 07:29:22;;;;;;;14.90;12.07;;;7.40;99.90;;;;;;5047818;28;20189;-88
2020/12/19 07:31:53;;;;;;;21.45;13.82;;;7.40;99.90;;;;;;5047742;28;20196;-89
2020/12/19 07:34:21;;;;;;;15.50;12.35;;;7.60;99.90;;;;;;5053344;28;20279;-90
2020/12/19 07:36:50;;;;;;;20.13;14.63;;;7.50;99.90;;;;;;5038666;28;20222;-90
2020/12/19 07:39:20;;;;;;;15.10;11.70;;;7.50;99.90;;;;;;5050597;28;20279;-90
2020/12/19 07:42:02;;;;;;;16.45;13.50;;;7.60;99.90;;;;;;5050632;28;20196;-90
2020/12/19 07:44:28;;;;;;;15.88;12.55;;;7.70;99.90;;;;;;5049878;28;20200;-89
2020/12/19 07:46:57;;;;;;;19.25;15.57;;;7.70;99.90;;;;;;5044819;28;20214;-89
2020/12/19 07:49:25;;;;;;;19.15;13.45;;;7.70;99.90;;;;;;5041410;28;20255;-89
2020/12/19 07:52:02;;;;;;;17.45;13.38;;;7.70;99.90;;;;;;5043110;28;20656;-88
2020/12/19 07:54:28;;;;;;;15.55;12.52;;;7.70;99.90;;;;;;5041457;28;20224;-88
2020/12/19 07:56:55;;;;;;;16.63;12.82;;;7.80;99.90;;;;;;5042145;28;20185;-88
2020/12/19 07:59:23;;;;;;;19.52;13.63;;;7.90;99.90;;;;;;5041487;28;20199;-89
2020/12/19 08:01:49;;;;;;;15.95;12.70;;;8.20;99.90;;;;;;5043316;28;20204;-89
2020/12/19 08:04:16;;;;;;;15.32;11.80;;;7.90;99.90;;;;;;5039386;28;20185;-87
2020/12/19 08:06:43;;;;;;;17.00;14.18;;;7.90;99.90;;;;;;5034626;28;20199;-85
2020/12/19 08:09:11;;;;;;;20.55;14.38;;;8.10;99.90;;;;;;5032498;28;20247;-87
2020/12/19 08:11:48;;;;;;;19.52;13.45;;;8.20;99.90;;;;;;5032460;28;20189;-86
2020/12/19 08:14:15;;;;;;;20.50;13.82;;;8.30;99.90;;;;;;5034186;28;20220;-84
2020/12/19 08:16:45;;;;;;;19.60;12.05;;;8.30;99.90;;;;;;5038449;28;20276;-85
2020/12/19 08:19:17;;;;;;;13.50;11.38;;;8.40;99.90;;;;;;5035960;28;20188;-87
2020/12/19 08:21:46;;;;;;;13.20;10.95;;;8.50;99.90;;;;;;5033271;28;20199;-83
2020/12/19 08:24:15;;;;;;;15.63;12.93;;;8.70;99.90;;;;;;5033212;28;20649;-83
2020/12/19 08:26:41;;;;;;;15.77;12.25;;;8.70;99.90;;;;;;5035887;28;20189;-86
2020/12/19 08:29:08;;;;;;;14.80;10.88;;;8.70;99.90;;;;;;5031405;28;20196;-85
2020/12/19 08:31:35;;;;;;;13.15;10.95;;;8.70;99.90;;;;;;5037028;28;20200;-84
2020/12/19 08:34:04;;;;;;;12.48;10.30;;;8.70;99.90;;;;;;5028860;28;20211;-85
2020/12/19 08:36:32;;;;;;;11.60;10.05;;;8.80;99.90;;;;;;5035773;28;20214;-82
2020/12/19 08:39:12;;;;;;;15.77;10.35;;;8.80;99.90;;;;;;5034259;28;20193;-86
2020/12/19 08:41:39;;;;;;;12.05;9.85;;;8.80;99.90;;;;;;5036343;28;20188;-83
2020/12/19 08:44:05;;;;;;;13.98;9.98;;;8.90;99.90;;;;;;5034778;28;20242;-83
2020/12/19 08:46:31;;;;;;;11.73;9.95;;;8.90;99.90;;;;;;5034439;28;20196;-84
2020/12/19 08:49:01;;;;;;;16.75;12.45;;;8.90;99.90;;;;;;5034432;28;20212;-85
2020/12/19 08:51:28;;;;;;;15.25;11.45;;;9.00;99.90;;;;;;5034452;28;20200;-85
2020/12/19 08:54:10;;;;;;;12.00;9.52;;;9.00;99.90;;;;;;5034467;28;20212;-83
2020/12/19 08:56:37;;;;;;;12.60;9.65;;;9.00;99.90;;;;;;5035322;28;20184;-84
2020/12/19 08:59:04;;;;;;;10.95;8.85;;;9.00;99.90;;;;;;5034600;28;20258;-85
2020/12/19 09:01:31;;;;;;;13.55;9.88;;;9.00;99.90;;;;;;5034595;28;20226;-84
2020/12/19 09:04:08;;;;;;;11.75;9.93;;;9.00;99.90;;;;;;5035700;28;20192;-83
2020/12/19 09:06:46;;;;;;;11.90;9.57;;;9.10;99.90;;;;;;5034584;28;20188;-83
2020/12/19 09:09:19;;;;;;;12.07;9.85;;;9.10;99.90;;;;;;5035241;28;20192;-85
2020/12/19 09:12:22;;;;;;;11.77;10.35;;;9.20;99.90;;;;;;5036388;28;20188;-84
2020/12/19 09:14:48;;;;;;;10.00;8.10;;;9.20;99.90;;;;;;5035269;28;20212;-85
2020/12/19 09:17:27;;;;;;;11.65;9.57;;;9.20;99.90;;;;;;5034380;28;20583;-84
2020/12/19 09:20:04;;;;;;;12.88;9.88;;;9.20;99.90;;;;;;5034516;28;20192;-85
2020/12/19 09:22:31;;;;;;;11.63;10.43;;;9.20;99.90;;;;;;5034328;28;20196;-85
2020/12/19 09:24:58;;;;;;;9.52;8.43;;;9.30;99.90;;;;;;5034326;28;20545;-84
2020/12/19 09:27:24;;;;;;;13.80;10.95;;;9.30;99.90;;;;;;5034002;28;20193;-85
2020/12/19 09:29:51;;;;;;;14.23;9.85;;;9.40;99.90;;;;;;5034161;28;20185;-84
2020/12/19 09:32:19;;;;;;;13.48;9.43;;;9.50;99.90;;;;;;5033757;28;20192;-85
2020/12/19 09:34:46;;;;;;;11.07;9.02;;;9.60;99.90;;;;;;5034210;28;20672;-84
2020/12/19 09:37:12;;;;;;;10.65;9.05;;;9.60;99.90;;;;;;5035810;28;20193;-86
2020/12/19 09:39:40;;;;;;;11.15;7.57;;;9.60;99.90;;;;;;5049857;28;20189;-83
2020/12/19 09:42:06;;;;;;;11.73;9.30;;;9.70;99.90;;;;;;5036115;28;20200;-84
2020/12/19 09:44:33;;;;;;;10.13;9.13;;;9.70;99.90;;;;;;5034120;28;20184;-85
2020/12/19 09:46:59;;;;;;;12.55;8.48;;;9.70;99.90;;;;;;5034540;28;20192;-86
2020/12/19 09:49:25;;;;;;;11.77;8.00;;;9.70;99.90;;;;;;5033974;28;20272;-85
2020/12/19 09:51:52;;;;;;;13.55;8.98;;;9.80;99.90;;;;;;5035357;28;20196;-85
2020/12/19 09:54:18;;;;;;;11.98;8.35;;;9.90;99.90;;;;;;5037206;28;20304;-85
2020/12/19 09:56:45;;;;;;;9.15;7.35;;;10.00;99.90;;;;;;5035114;28;20189;-85
2020/12/19 09:59:11;;;;;;;10.80;8.23;;;10.10;99.90;;;;;;5035255;28;20681;-84
2020/12/19 10:01:39;;;;;;;8.63;6.88;;;10.10;99.90;;;;;;5035713;28;20276;-86
2020/12/19 10:04:05;;;;;;;9.45;6.57;;;10.20;99.90;;;;;;5033263;28;20192;-85
2020/12/19 10:06:32;;;;;;;8.90;7.93;;;10.30;99.90;;;;;;5033103;28;20197;-86
2020/12/19 10:08:59;;;;;;;8.10;7.18;;;10.30;99.90;;;;;;5038678;28;20672;-85
2020/12/19 10:11:27;;;;;;;12.40;8.10;;;10.30;99.90;;;;;;5044420;28;20189;-85
2020/12/19 10:13:54;;;;;;;10.40;7.85;;;10.40;99.90;;;;;;5038020;28;20315;-85
2020/12/19 10:16:21;;;;;;;10.35;7.35;;;10.50;99.90;;;;;;5033985;28;20223;-85
2020/12/19 10:18:47;;;;;;;9.98;6.65;;;10.50;99.90;;;;;;5052506;28;20188;-88
2020/12/19 10:21:14;;;;;;;8.05;6.68;;;10.50;99.90;;;;;;5036329;28;20235;-85
2020/12/19 10:23:40;;;;;;;8.10;5.63;;;10.60;99.90;;;;;;5035138;28;20185;-86
2020/12/19 10:26:06;;;;;;;8.98;6.90;;;10.70;99.90;;;;;;5034039;28;20193;-85
2020/12/19 10:28:32;;;;;;;7.22;6.25;;;10.70;99.90;;;;;;5033584;28;20664;-87
2020/12/19 10:31:00;;;;;;;22.17;7.00;;;10.70;99.90;;;;;;5034327;28;20241;-87
2020/12/19 10:33:26;;;;;;;6.78;6.07;;;10.80;99.90;;;;;;5034044;28;20207;-86
2020/12/19 10:35:53;;;;;;;8.80;6.70;;;10.80;99.90;;;;;;5033582;28;20311;-87
2020/12/19 10:38:20;;;;;;;8.77;6.03;;;10.90;99.90;;;;;;5034468;28;20185;-86
2020/12/19 10:40:46;;;;;;;11.05;5.57;;;10.90;99.90;;;;;;5037788;28;20591;-86
2020/12/19 10:43:12;;;;;;;6.38;5.38;;;11.00;99.90;;;;;;5037142;28;20192;-86
2020/12/19 10:45:39;;;;;;;7.85;5.80;;;11.00;99.90;;;;;;5037005;28;20207;-86
2020/12/19 10:48:06;;;;;;;6.30;5.13;;;11.00;99.90;;;;;;5036886;28;20189;-86
2020/12/19 10:50:32;;;;;;;7.65;4.97;;;11.10;99.90;;;;;;5038612;28;20276;-86
2020/12/19 10:52:59;;;;;;;6.60;5.30;;;11.10;99.90;;;;;;5051416;28;20245;-86
2020/12/19 10:55:25;;;;;;;6.60;5.40;;;11.10;99.90;;;;;;5046113;28;20225;-84
2020/12/19 10:57:51;;;;;;;8.68;5.60;;;11.20;99.90;;;;;;5037581;28;20188;-84
2020/12/19 11:00:17;;;;;;;11.48;6.10;;;11.30;99.90;;;;;;5034230;28;20202;-86
2020/12/19 11:02:45;;;;;;;6.60;5.10;;;11.40;99.90;;;;;;5035397;28;20185;-85
2020/12/19 11:05:12;;;;;;;10.05;5.10;;;11.40;99.90;;;;;;5036133;28;20192;-85
2020/12/19 11:07:38;;;;;;;6.43;4.95;;;11.50;99.90;;;;;;5036067;28;20234;-85
2020/12/19 11:10:05;;;;;;;6.65;5.13;;;11.50;99.90;;;;;;5036579;28;20197;-84
2020/12/19 11:12:32;;;;;;;7.07;5.47;;;11.60;99.90;;;;;;5036653;28;20181;-85
2020/12/19 11:14:58;;;;;;;7.03;5.82;;;11.50;99.90;;;;;;5034657;28;20247;-85
2020/12/19 11:17:26;;;;;;;6.82;5.28;;;11.60;99.90;;;;;;5028910;28;20189;-85
2020/12/19 11:19:53;;;;;;;6.80;5.30;;;11.60;99.90;;;;;;5029818;28;20266;-86
2020/12/19 11:22:20;;;;;;;6.35;4.88;;;11.70;99.90;;;;;;5034794;28;20195;-86
2020/12/19 11:24:47;;;;;;;6.53;5.50;;;11.90;99.90;;;;;;5036462;28;20190;-85
2020/12/19 11:27:13;;;;;;;5.22;3.90;;;12.40;99.90;;;;;;5033069;28;20190;-86
2020/12/19 11:29:42;;;;;;;5.88;5.20;;;12.60;99.90;;;;;;5038317;28;20185;-87
2020/12/19 11:32:25;;;;;;;6.88;4.20;;;12.80;99.90;;;;;;5048364;28;20192;-86
2020/12/19 11:34:52;;;;;;;7.68;4.75;;;12.80;99.90;;;;;;5038106;28;20262;-85
2020/12/19 11:37:18;;;;;;;6.50;4.75;;;12.90;99.90;;;;;;5037141;28;20195;-86
2020/12/19 11:39:46;;;;;;;5.80;4.72;;;13.00;99.90;;;;;;5037433;28;20625;-87
2020/12/19 11:42:12;;;;;;;5.28;3.90;;;13.30;99.90;;;;;;5036813;28;20193;-86
2020/12/19 11:44:39;;;;;;;6.55;3.95;;;13.70;99.90;;;;;;5036430;28;20274;-87
2020/12/19 11:47:05;;;;;;;5.25;4.15;;;13.90;99.90;;;;;;5035237;28;20195;-85
2020/12/19 11:49:31;;;;;;;5.60;4.28;;;14.10;99.90;;;;;;5031415;28;20195;-85
2020/12/19 11:52:00;;;;;;;4.85;3.85;;;14.20;99.90;;;;;;5039198;28;20267;-85
2020/12/19 11:54:27;;;;;;;4.75;3.47;;;14.30;99.90;;;;;;5040626;28;20248;-86
2020/12/19 11:56:54;;;;;;;8.88;4.60;;;14.20;99.90;;;;;;5038634;28;20192;-87
2020/12/19 11:59:20;;;;;;;4.97;4.00;;;14.00;99.90;;;;;;5038887;28;20238;-86
2020/12/19 12:01:47;;;;;;;5.25;4.15;;;13.80;99.90;;;;;;5038944;28;20197;-86
2020/12/19 12:04:13;;;;;;;25.13;4.90;;;13.60;99.90;;;;;;5044258;28;20252;-86
2020/12/19 12:06:39;;;;;;;5.63;4.45;;;13.60;99.90;;;;;;5056091;28;20276;-85
2020/12/19 12:09:06;;;;;;;5.45;3.45;;;13.30;99.90;;;;;;5050853;28;20211;-87
2020/12/19 12:11:34;;;;;;;6.47;3.38;;;13.20;99.90;;;;;;5041347;28;20230;-85
2020/12/19 12:14:01;;;;;;;7.47;4.00;;;13.00;99.90;;;;;;5055300;28;20208;-88
2020/12/19 12:16:28;;;;;;;10.15;4.05;;;12.90;99.90;;;;;;5058885;28;20212;-88
2020/12/19 12:18:56;;;;;;;5.18;3.75;;;12.90;99.90;;;;;;5061262;28;20193;-89
2020/12/19 12:21:23;;;;;;;5.63;4.28;;;13.00;99.90;;;;;;5056436;28;20177;-87
2020/12/19 12:23:49;;;;;;;5.22;4.57;;;13.10;99.90;;;;;;5059304;28;20187;-86
2020/12/19 12:26:23;;;;;;;5.78;3.30;;;13.00;99.90;;;;;;5056797;28;20187;-85
2020/12/19 12:28:50;;;;;;;4.63;3.55;;;12.90;99.90;;;;;;5057915;28;20177;-85
2020/12/19 12:31:22;;;;;;;7.45;3.35;;;13.00;99.90;;;;;;5058579;28;20361;-87
2020/12/19 12:33:48;;;;;;;5.50;3.83;;;13.00;99.90;;;;;;5052558;28;20207;-86
2020/12/19 12:36:15;;;;;;;9.65;4.80;;;13.30;99.90;;;;;;5058868;28;20189;-89
2020/12/19 12:38:42;;;;;;;4.78;3.42;;;13.50;99.90;;;;;;5058776;28;20173;-87
2020/12/19 12:41:09;;;;;;;6.18;4.10;;;13.50;99.90;;;;;;5057872;28;20188;-88
2020/12/19 12:43:35;;;;;;;9.65;3.97;;;13.20;99.90;;;;;;5054462;28;20203;-86
2020/12/19 12:46:01;;;;;;;6.30;3.58;;;13.10;99.90;;;;;;5053181;28;20211;-87
2020/12/19 12:48:29;;;;;;;6.95;3.97;;;13.00;99.90;;;;;;5049814;28;20192;-87
2020/12/19 12:50:55;;;;;;;3.85;2.97;;;13.00;99.90;;;;;;5042375;28;20189;-87
2020/12/19 12:53:21;;;;;;;3.53;2.97;;;13.00;99.90;;;;;;5035320;28;20211;-86